<?xml version="1.0" encoding="UTF-8" standalone="no" ?>
<gpx xmlns="http://www.topografix.com/GPX/1/1" xmlns:xsi="http://www.w3.org/2001/XMLSchema-instance" xsi:schemaLocation="http://www.topografix.com/GPX/1/1 http://www.topografix.com/GPX/1/1/gpx.xsd" version="1.1" creator="VisuGPX - https://www.visugpx.com">
  <metadata>
    <name>02: Combe de Siblet - plateau de Bouissac</name>
    <desc><![CDATA[02: Combe de Siblet - plateau de Bouissac]]></desc>
  </metadata>
  <wpt lat="43.83631" lon="3.12279">
    <ele>520</ele>
    <name><![CDATA[Accueil PdC Centre]]></name>
  </wpt>
  <wpt lat="43.83657" lon="3.11798">
    <ele>530.1</ele>
    <name><![CDATA[PCD]]></name>
  </wpt>
  <wpt lat="43.83852" lon="3.10886">
    <ele>545</ele>
    <name><![CDATA[SBA]]></name>
  </wpt>
  <wpt lat="43.83575" lon="3.10758">
    <ele>630</ele>
    <name><![CDATA[SBB]]></name>
  </wpt>
  <wpt lat="43.83395" lon="3.10485">
    <ele>700</ele>
    <name><![CDATA[SBC]]></name>
  </wpt>
  <wpt lat="43.83393" lon="3.10913">
    <ele>690</ele>
    <name><![CDATA[BRG]]></name>
  </wpt>
  <wpt lat="43.83616" lon="3.1138">
    <ele>589.9</ele>
    <name><![CDATA[BRB]]></name>
  </wpt>
  <wpt lat="43.83618" lon="3.11496">
    <ele>569.9</ele>
    <name><![CDATA[BRA]]></name>
  </wpt>
  <trk>
    <name><![CDATA[RoTr 02 PdC]]></name>
    <trkseg>
      <trkpt lat="43.83657" lon="3.11795">
        <ele>535</ele>
        <time>2010-01-01T00:00:00Z</time>
      </trkpt>
      <trkpt lat="43.83657" lon="3.11737">
        <ele>535</ele>
        <time>2010-01-01T00:01:46Z</time>
      </trkpt>
      <trkpt lat="43.83653" lon="3.11697">
        <ele>538</ele>
        <time>2010-01-01T00:03:00Z</time>
      </trkpt>
      <trkpt lat="43.83668" lon="3.11564">
        <ele>543</ele>
        <time>2010-01-01T00:07:07Z</time>
      </trkpt>
      <trkpt lat="43.83684" lon="3.11478">
        <ele>549</ele>
        <time>2010-01-01T00:09:48Z</time>
      </trkpt>
      <trkpt lat="43.83773" lon="3.11139">
        <ele>558</ele>
        <time>2010-01-01T00:20:48Z</time>
      </trkpt>
      <trkpt lat="43.83772" lon="3.11082">
        <ele>561</ele>
        <time>2010-01-01T00:22:32Z</time>
      </trkpt>
      <trkpt lat="43.83821" lon="3.10925">
        <ele>554</ele>
        <time>2010-01-01T00:27:44Z</time>
      </trkpt>
      <trkpt lat="43.83851" lon="3.10883">
        <ele>555</ele>
        <time>2010-01-01T00:29:32Z</time>
      </trkpt>
      <trkpt lat="43.8385" lon="3.1088">
        <ele>555</ele>
        <time>2010-01-01T00:29:37Z</time>
      </trkpt>
      <trkpt lat="43.83815" lon="3.1088">
        <ele>562</ele>
        <time>2010-01-01T00:31:07Z</time>
      </trkpt>
      <trkpt lat="43.83784" lon="3.10867">
        <ele>573</ele>
        <time>2010-01-01T00:32:28Z</time>
      </trkpt>
      <trkpt lat="43.83757" lon="3.10871">
        <ele>581</ele>
        <time>2010-01-01T00:33:37Z</time>
      </trkpt>
      <trkpt lat="43.83717" lon="3.10846">
        <ele>595</ele>
        <time>2010-01-01T00:35:29Z</time>
      </trkpt>
      <trkpt lat="43.83702" lon="3.10867">
        <ele>602</ele>
        <time>2010-01-01T00:36:22Z</time>
      </trkpt>
      <trkpt lat="43.83687" lon="3.1087">
        <ele>609</ele>
        <time>2010-01-01T00:37:01Z</time>
      </trkpt>
      <trkpt lat="43.83673" lon="3.10849">
        <ele>610</ele>
        <time>2010-01-01T00:37:54Z</time>
      </trkpt>
      <trkpt lat="43.83576" lon="3.1076">
        <ele>642</ele>
        <time>2010-01-01T00:42:49Z</time>
      </trkpt>
      <trkpt lat="43.83574" lon="3.10757">
        <ele>642</ele>
        <time>2010-01-01T00:42:55Z</time>
      </trkpt>
      <trkpt lat="43.83499" lon="3.10661">
        <ele>669</ele>
        <time>2010-01-01T00:47:16Z</time>
      </trkpt>
      <trkpt lat="43.83492" lon="3.10611">
        <ele>676</ele>
        <time>2010-01-01T00:48:48Z</time>
      </trkpt>
      <trkpt lat="43.83472" lon="3.10588">
        <ele>683</ele>
        <time>2010-01-01T00:49:53Z</time>
      </trkpt>
      <trkpt lat="43.8346" lon="3.10546">
        <ele>692</ele>
        <time>2010-01-01T00:51:16Z</time>
      </trkpt>
      <trkpt lat="43.83426" lon="3.10507">
        <ele>701</ele>
        <time>2010-01-01T00:53:07Z</time>
      </trkpt>
      <trkpt lat="43.83397" lon="3.10483">
        <ele>707</ele>
        <time>2010-01-01T00:54:32Z</time>
      </trkpt>
      <trkpt lat="43.83397" lon="3.10484">
        <ele>707</ele>
        <time>2010-01-01T00:54:34Z</time>
      </trkpt>
      <trkpt lat="43.83389" lon="3.10512">
        <ele>707</ele>
        <time>2010-01-01T00:55:30Z</time>
      </trkpt>
      <trkpt lat="43.83403" lon="3.10559">
        <ele>702</ele>
        <time>2010-01-01T00:57:02Z</time>
      </trkpt>
      <trkpt lat="43.83417" lon="3.10617">
        <ele>697</ele>
        <time>2010-01-01T00:58:54Z</time>
      </trkpt>
      <trkpt lat="43.83408" lon="3.10663">
        <ele>700</ele>
        <time>2010-01-01T01:00:22Z</time>
      </trkpt>
      <trkpt lat="43.83411" lon="3.10771">
        <ele>701</ele>
        <time>2010-01-01T01:03:39Z</time>
      </trkpt>
      <trkpt lat="43.83398" lon="3.10854">
        <ele>696</ele>
        <time>2010-01-01T01:06:15Z</time>
      </trkpt>
      <trkpt lat="43.83394" lon="3.10908">
        <ele>688</ele>
        <time>2010-01-01T01:07:55Z</time>
      </trkpt>
      <trkpt lat="43.83394" lon="3.10913">
        <ele>688</ele>
        <time>2010-01-01T01:08:03Z</time>
      </trkpt>
      <trkpt lat="43.8339" lon="3.10918">
        <ele>686</ele>
        <time>2010-01-01T01:08:15Z</time>
      </trkpt>
      <trkpt lat="43.83386" lon="3.10917">
        <ele>685</ele>
        <time>2010-01-01T01:08:27Z</time>
      </trkpt>
      <trkpt lat="43.83385" lon="3.10926">
        <ele>683</ele>
        <time>2010-01-01T01:08:43Z</time>
      </trkpt>
      <trkpt lat="43.83408" lon="3.10977">
        <ele>678</ele>
        <time>2010-01-01T01:10:33Z</time>
      </trkpt>
      <trkpt lat="43.83424" lon="3.1102">
        <ele>671</ele>
        <time>2010-01-01T01:12:02Z</time>
      </trkpt>
      <trkpt lat="43.83451" lon="3.11073">
        <ele>664</ele>
        <time>2010-01-01T01:14:00Z</time>
      </trkpt>
      <trkpt lat="43.83538" lon="3.11261">
        <ele>618</ele>
        <time>2010-01-01T01:20:49Z</time>
      </trkpt>
      <trkpt lat="43.83556" lon="3.11292">
        <ele>610</ele>
        <time>2010-01-01T01:22:01Z</time>
      </trkpt>
      <trkpt lat="43.83573" lon="3.1133">
        <ele>600</ele>
        <time>2010-01-01T01:23:23Z</time>
      </trkpt>
      <trkpt lat="43.83587" lon="3.11358">
        <ele>592</ele>
        <time>2010-01-01T01:24:26Z</time>
      </trkpt>
      <trkpt lat="43.83603" lon="3.11387">
        <ele>579</ele>
        <time>2010-01-01T01:25:32Z</time>
      </trkpt>
      <trkpt lat="43.8361" lon="3.11388">
        <ele>577</ele>
        <time>2010-01-01T01:25:51Z</time>
      </trkpt>
      <trkpt lat="43.83615" lon="3.1138">
        <ele>577</ele>
        <time>2010-01-01T01:26:10Z</time>
      </trkpt>
      <trkpt lat="43.83617" lon="3.11383">
        <ele>576</ele>
        <time>2010-01-01T01:26:18Z</time>
      </trkpt>
      <trkpt lat="43.83618" lon="3.11389">
        <ele>574</ele>
        <time>2010-01-01T01:26:28Z</time>
      </trkpt>
      <trkpt lat="43.83618" lon="3.11403">
        <ele>571</ele>
        <time>2010-01-01T01:26:54Z</time>
      </trkpt>
      <trkpt lat="43.83616" lon="3.11419">
        <ele>567</ele>
        <time>2010-01-01T01:27:25Z</time>
      </trkpt>
      <trkpt lat="43.83611" lon="3.11448">
        <ele>564</ele>
        <time>2010-01-01T01:28:19Z</time>
      </trkpt>
      <trkpt lat="43.83614" lon="3.11502">
        <ele>555</ele>
        <time>2010-01-01T01:29:57Z</time>
      </trkpt>
      <trkpt lat="43.83614" lon="3.11504">
        <ele>555</ele>
        <time>2010-01-01T01:30:01Z</time>
      </trkpt>
      <trkpt lat="43.83623" lon="3.11583">
        <ele>548</ele>
        <time>2010-01-01T01:32:27Z</time>
      </trkpt>
      <trkpt lat="43.83628" lon="3.1161">
        <ele>546</ele>
        <time>2010-01-01T01:33:17Z</time>
      </trkpt>
      <trkpt lat="43.83628" lon="3.11652">
        <ele>544</ele>
        <time>2010-01-01T01:34:36Z</time>
      </trkpt>
      <trkpt lat="43.83632" lon="3.11691">
        <ele>542</ele>
        <time>2010-01-01T01:35:47Z</time>
      </trkpt>
      <trkpt lat="43.83654" lon="3.11795">
        <ele>535</ele>
        <time>2010-01-01T01:39:05Z</time>
      </trkpt>
      <trkpt lat="43.83657" lon="3.11798">
        <ele>535</ele>
        <time>2010-01-01T01:39:13Z</time>
      </trkpt>
    </trkseg>
  </trk>
</gpx>